Time;durP1;ratioP1;P1;durP2;ratioP2;P2;SDS_P1;SDS_P2;PMS_P1;PMS_P2;Temp;Humidity;BMP_temperature;BMP_pressure;BME280_temperature;BME280_humidity;BME280_pressure;Samples;Min_cycle;Max_cycle;Signal;HPM_P1;HPM_P2
2024/02/20 00:02:17;;;;;;;3.90;2.33;;;6.20;99.90;;;;;;4986245;28;20201;-58
2024/02/20 00:04:43;;;;;;;2.37;1.97;;;6.20;99.90;;;;;;4990728;28;20192;-58
2024/02/20 00:07:09;;;;;;;5.23;2.30;;;6.10;99.90;;;;;;4984823;28;20184;-58
2024/02/20 00:09:35;;;;;;;3.00;2.43;;;6.10;99.90;;;;;;4987913;28;20415;-58
2024/02/20 00:12:00;;;;;;;4.17;2.20;;;6.10;99.90;;;;;;4987483;28;20188;-56
2024/02/20 00:14:27;;;;;;;2.53;2.33;;;6.20;99.90;;;;;;4988953;28;20197;-57
2024/02/20 00:16:53;;;;;;;2.17;2.00;;;6.20;99.90;;;;;;4990871;28;20232;-57
2024/02/20 00:19:20;;;;;;;2.17;1.97;;;6.20;99.90;;;;;;4987136;28;20435;-57
2024/02/20 00:21:46;;;;;;;3.03;2.00;;;6.20;99.90;;;;;;4990626;28;20424;-58
2024/02/20 00:24:12;;;;;;;2.83;2.20;;;6.20;99.90;;;;;;4991967;28;20567;-57
2024/02/20 00:26:38;;;;;;;2.47;1.93;;;6.20;99.90;;;;;;4988805;28;21021;-58
2024/02/20 00:29:04;;;;;;;1.70;1.60;;;6.20;99.90;;;;;;4990533;28;20927;-58
2024/02/20 00:31:32;;;;;;;2.60;2.23;;;6.20;99.90;;;;;;4997996;28;20423;-58
2024/02/20 00:33:59;;;;;;;2.10;1.93;;;6.20;99.90;;;;;;4996034;28;20420;-59
2024/02/20 00:36:25;;;;;;;3.00;2.10;;;6.20;99.90;;;;;;4993500;28;20463;-57
2024/02/20 00:38:50;;;;;;;2.57;2.00;;;6.20;99.90;;;;;;4991768;28;20444;-57
2024/02/20 00:41:18;;;;;;;2.30;2.07;;;6.20;99.90;;;;;;4992370;28;21029;-57
2024/02/20 00:43:44;;;;;;;2.50;2.23;;;6.20;99.90;;;;;;4989291;28;20197;-58
2024/02/20 00:46:17;;;;;;;2.70;1.80;;;6.20;99.90;;;;;;4989899;28;20867;-58
2024/02/20 00:48:44;;;;;;;2.53;1.90;;;6.20;99.90;;;;;;4979528;28;20178;-57
2024/02/20 00:51:10;;;;;;;2.77;1.30;;;6.20;99.90;;;;;;4993559;28;20817;-58
2024/02/20 00:53:36;;;;;;;1.57;1.47;;;6.20;99.90;;;;;;4986419;28;20891;-59
2024/02/20 00:56:02;;;;;;;1.70;1.60;;;6.10;99.90;;;;;;4990673;28;20994;-56
2024/02/20 00:58:27;;;;;;;2.47;1.70;;;6.20;99.90;;;;;;4983143;28;20182;-57
2024/02/20 01:00:53;;;;;;;1.33;1.23;;;6.10;99.90;;;;;;4987415;28;20193;-57
2024/02/20 01:03:18;;;;;;;2.60;1.50;;;6.10;99.90;;;;;;4988919;28;20251;-57
2024/02/20 01:05:44;;;;;;;1.63;1.53;;;6.10;99.90;;;;;;4994255;28;20197;-57
2024/02/20 01:08:10;;;;;;;1.40;1.30;;;6.00;99.90;;;;;;4990736;28;20185;-57
2024/02/20 01:10:37;;;;;;;2.20;1.43;;;6.00;99.90;;;;;;4987884;28;20189;-57
2024/02/20 01:13:03;;;;;;;1.30;1.20;;;6.00;99.90;;;;;;4989336;28;20207;-59
2024/02/20 01:15:28;;;;;;;2.10;1.20;;;6.00;99.90;;;;;;4988186;28;20464;-57
2024/02/20 01:17:54;;;;;;;1.43;1.30;;;6.00;99.90;;;;;;4987143;28;20192;-57
2024/02/20 01:20:19;;;;;;;1.37;1.27;;;6.00;99.90;;;;;;4992160;28;20185;-59
2024/02/20 01:22:45;;;;;;;1.70;1.57;;;6.00;99.90;;;;;;4989938;28;20204;-57
2024/02/20 01:25:11;;;;;;;1.40;1.30;;;6.00;99.90;;;;;;4996162;28;20351;-58
2024/02/20 01:27:37;;;;;;;2.37;1.60;;;6.00;99.90;;;;;;4990249;28;20436;-58
2024/02/20 01:30:03;;;;;;;1.80;1.70;;;6.00;99.90;;;;;;4990465;28;20448;-57
2024/02/20 01:32:29;;;;;;;1.07;1.07;;;6.00;99.90;;;;;;4991090;28;20185;-58
2024/02/20 01:34:54;;;;;;;1.37;1.27;;;6.00;99.90;;;;;;4988814;28;20550;-57
2024/02/20 01:37:20;;;;;;;1.47;1.37;;;6.00;99.90;;;;;;4992577;28;20189;-58
2024/02/20 01:39:45;;;;;;;1.40;1.30;;;6.00;99.90;;;;;;4989172;28;20688;-58
2024/02/20 01:42:11;;;;;;;1.50;1.30;;;5.90;99.90;;;;;;4992109;28;20220;-57
2024/02/20 01:44:37;;;;;;;1.53;1.13;;;5.90;99.90;;;;;;4990023;28;20200;-57
2024/02/20 01:47:03;;;;;;;1.53;1.43;;;5.90;99.90;;;;;;4990397;28;20744;-57
2024/02/20 01:49:29;;;;;;;1.30;1.20;;;5.90;99.90;;;;;;4984192;28;20193;-58
2024/02/20 01:51:56;;;;;;;1.60;1.50;;;5.90;99.90;;;;;;4991514;28;20432;-58
2024/02/20 01:54:22;;;;;;;1.37;1.27;;;5.90;99.90;;;;;;4991134;28;20459;-57
2024/02/20 01:56:49;;;;;;;1.40;1.30;;;5.90;99.90;;;;;;4993939;28;20515;-58
2024/02/20 01:59:15;;;;;;;1.50;1.40;;;5.90;99.90;;;;;;4983348;28;21100;-57
2024/02/20 02:01:41;;;;;;;1.50;1.40;;;5.90;99.90;;;;;;4988831;28;20424;-58
2024/02/20 02:04:06;;;;;;;2.03;1.10;;;5.90;99.90;;;;;;4990515;28;20474;-57
2024/02/20 02:06:37;;;;;;;1.37;1.10;;;5.90;99.90;;;;;;4992764;28;20553;-57
2024/02/20 02:09:04;;;;;;;1.00;1.00;;;5.90;99.90;;;;;;4988113;28;20181;-58
2024/02/20 02:11:29;;;;;;;1.10;1.10;;;5.90;99.90;;;;;;4985406;28;20806;-58
2024/02/20 02:13:55;;;;;;;1.27;1.17;;;5.90;99.90;;;;;;4989286;28;20436;-58
2024/02/20 02:16:21;;;;;;;1.97;1.00;;;5.90;99.90;;;;;;4990350;28;20209;-58
2024/02/20 02:18:46;;;;;;;1.33;1.23;;;5.90;99.90;;;;;;4993513;28;20243;-57
2024/02/20 02:21:12;;;;;;;1.23;1.20;;;5.90;99.90;;;;;;4984089;28;20208;-57
2024/02/20 02:23:38;;;;;;;1.20;1.10;;;5.90;99.90;;;;;;4995898;28;20212;-57
2024/02/20 02:26:09;;;;;;;1.03;1.03;;;5.90;99.90;;;;;;4986001;28;20197;-57
2024/02/20 02:28:34;;;;;;;1.20;1.10;;;5.90;99.90;;;;;;4992980;28;20180;-57
2024/02/20 02:31:00;;;;;;;1.30;1.20;;;5.90;99.90;;;;;;4987415;28;21069;-57
2024/02/20 02:33:26;;;;;;;1.60;1.13;;;5.90;99.90;;;;;;4991959;28;20181;-58
2024/02/20 02:35:51;;;;;;;0.90;0.90;;;5.90;99.90;;;;;;4985772;28;20223;-57
2024/02/20 02:38:17;;;;;;;1.20;1.10;;;5.90;99.90;;;;;;4979629;28;20192;-56
2024/02/20 02:40:42;;;;;;;1.13;1.03;;;5.90;99.90;;;;;;4988955;28;20185;-57
2024/02/20 02:43:08;;;;;;;1.00;1.00;;;5.90;99.90;;;;;;4981934;28;20730;-58
2024/02/20 02:45:34;;;;;;;2.73;1.10;;;5.90;99.90;;;;;;4991361;28;20291;-59
2024/02/20 02:47:59;;;;;;;1.07;0.97;;;5.90;99.90;;;;;;4989079;28;20188;-58
2024/02/20 02:50:25;;;;;;;1.20;1.20;;;5.90;99.90;;;;;;4990207;28;20177;-57
2024/02/20 02:52:51;;;;;;;1.10;1.00;;;5.90;99.90;;;;;;4980643;28;20177;-58
2024/02/20 02:55:17;;;;;;;1.30;1.13;;;5.90;99.90;;;;;;4990387;28;20532;-57
2024/02/20 02:57:42;;;;;;;1.23;1.13;;;5.90;99.90;;;;;;4991317;28;20647;-58
2024/02/20 03:00:11;;;;;;;1.30;1.20;;;5.90;99.90;;;;;;4983647;28;20209;-60
2024/02/20 03:02:37;;;;;;;2.00;1.40;;;5.90;99.90;;;;;;4988906;28;20594;-58
2024/02/20 03:05:03;;;;;;;1.57;1.43;;;5.90;99.90;;;;;;4988883;28;20510;-58
2024/02/20 03:07:29;;;;;;;3.33;1.60;;;6.00;99.90;;;;;;4988110;28;20943;-58
2024/02/20 03:09:55;;;;;;;1.67;1.03;;;6.00;99.90;;;;;;4985569;28;20412;-58
2024/02/20 03:12:21;;;;;;;2.30;1.77;;;6.00;99.90;;;;;;4988464;28;20203;-58
2024/02/20 03:14:48;;;;;;;1.57;1.47;;;5.90;99.90;;;;;;4988086;28;20444;-58
2024/02/20 03:17:13;;;;;;;3.37;1.50;;;5.90;99.90;;;;;;4988240;28;20189;-58
2024/02/20 03:19:39;;;;;;;1.43;1.33;;;5.90;99.90;;;;;;4990034;28;20536;-58
2024/02/20 03:22:05;;;;;;;1.57;1.40;;;5.90;99.90;;;;;;4986550;28;20260;-58
2024/02/20 03:24:30;;;;;;;3.23;1.60;;;5.90;99.90;;;;;;4989259;28;20201;-59
2024/02/20 03:26:56;;;;;;;2.70;1.70;;;5.90;99.90;;;;;;4988131;28;20177;-58
2024/02/20 03:29:22;;;;;;;1.70;1.23;;;5.90;99.90;;;;;;4987286;28;20560;-58
2024/02/20 03:31:48;;;;;;;2.03;1.83;;;5.80;99.90;;;;;;4987510;28;20698;-58
2024/02/20 03:34:14;;;;;;;2.67;1.50;;;5.80;99.90;;;;;;4985266;28;21071;-58
2024/02/20 03:36:39;;;;;;;4.50;1.77;;;5.80;99.90;;;;;;4987187;28;20439;-58
2024/02/20 03:39:05;;;;;;;4.77;2.43;;;5.80;99.90;;;;;;4989961;28;20204;-58
2024/02/20 03:41:31;;;;;;;4.07;1.90;;;5.80;99.90;;;;;;4993589;28;20200;-60
2024/02/20 03:43:56;;;;;;;2.30;2.10;;;5.80;99.90;;;;;;4991606;28;20351;-56
2024/02/20 03:46:22;;;;;;;2.63;1.80;;;5.70;99.90;;;;;;4988891;28;20184;-56
2024/02/20 03:48:47;;;;;;;3.67;2.10;;;5.70;99.90;;;;;;4985810;28;20259;-59
2024/02/20 03:51:13;;;;;;;2.77;2.23;;;5.70;99.90;;;;;;4983069;28;20177;-57
2024/02/20 03:53:39;;;;;;;2.50;2.20;;;5.70;99.90;;;;;;4990467;28;20185;-58
2024/02/20 03:56:10;;;;;;;5.50;2.00;;;5.70;99.90;;;;;;4989876;28;20201;-56
2024/02/20 03:58:36;;;;;;;3.40;2.03;;;5.70;99.90;;;;;;4998862;28;20426;-57
2024/02/20 04:01:02;;;;;;;2.20;2.00;;;5.60;99.90;;;;;;4995074;28;20421;-56
2024/02/20 04:03:27;;;;;;;3.17;2.03;;;5.60;99.90;;;;;;4991921;28;20208;-56
2024/02/20 04:05:53;;;;;;;7.37;2.30;;;5.60;99.90;;;;;;4993410;28;20204;-56
2024/02/20 04:08:18;;;;;;;3.07;2.10;;;5.50;99.90;;;;;;4993131;28;20181;-56
2024/02/20 04:10:44;;;;;;;2.27;1.70;;;5.50;99.90;;;;;;4986931;28;20582;-55
2024/02/20 04:13:10;;;;;;;2.87;1.80;;;5.50;99.90;;;;;;4996646;28;20181;-58
2024/02/20 04:15:37;;;;;;;4.80;2.23;;;5.50;99.90;;;;;;4994172;28;20932;-57
2024/02/20 04:18:03;;;;;;;4.23;2.13;;;5.50;99.90;;;;;;4995415;28;20205;-56
2024/02/20 04:20:28;;;;;;;2.53;2.33;;;5.40;99.90;;;;;;4995119;28;20447;-58
2024/02/20 04:22:54;;;;;;;15.27;8.00;;;5.40;99.90;;;;;;4987476;28;20284;-57
2024/02/20 04:25:20;;;;;;;3.97;3.40;;;5.40;99.90;;;;;;4992676;28;20248;-56
2024/02/20 04:27:47;;;;;;;3.53;3.00;;;5.30;99.90;;;;;;4995889;28;20268;-57
2024/02/20 04:30:13;;;;;;;2.73;2.47;;;5.30;99.90;;;;;;4998898;28;20439;-58
2024/02/20 04:32:39;;;;;;;4.63;2.80;;;5.30;99.90;;;;;;4994274;28;20518;-56
2024/02/20 04:35:05;;;;;;;4.73;2.73;;;5.30;99.90;;;;;;4988061;28;21017;-59
2024/02/20 04:37:31;;;;;;;6.00;2.37;;;5.30;99.90;;;;;;4990538;28;20192;-56
2024/02/20 04:39:57;;;;;;;4.13;2.20;;;5.30;99.90;;;;;;4993684;28;20427;-58
2024/02/20 04:42:22;;;;;;;4.07;2.80;;;5.30;99.90;;;;;;4993266;28;20757;-56
2024/02/20 04:44:49;;;;;;;3.20;2.40;;;5.30;99.90;;;;;;4994413;28;20890;-56
2024/02/20 04:47:15;;;;;;;3.00;2.07;;;5.20;99.90;;;;;;4990992;28;20193;-57
2024/02/20 04:49:40;;;;;;;5.07;2.77;;;5.20;99.90;;;;;;4997526;28;20785;-60
2024/02/20 04:52:06;;;;;;;5.30;2.53;;;5.20;99.90;;;;;;4988327;28;20213;-54
2024/02/20 04:54:32;;;;;;;3.30;2.70;;;5.20;99.90;;;;;;4993248;28;20638;-57
2024/02/20 04:56:57;;;;;;;2.77;2.13;;;5.20;99.90;;;;;;4990695;28;20173;-58
2024/02/20 04:59:23;;;;;;;3.00;2.07;;;5.30;99.90;;;;;;4983930;28;20177;-60
2024/02/20 05:01:49;;;;;;;2.50;2.20;;;5.30;99.90;;;;;;4983243;28;20594;-58
2024/02/20 05:04:14;;;;;;;6.23;2.50;;;5.30;99.90;;;;;;4988816;28;20244;-59
2024/02/20 05:06:40;;;;;;;4.40;2.40;;;5.40;99.90;;;;;;4983972;28;20839;-60
2024/02/20 05:09:06;;;;;;;4.63;3.30;;;5.40;99.90;;;;;;4979310;28;20191;-60
2024/02/20 05:11:31;;;;;;;4.47;2.10;;;5.40;99.90;;;;;;4985180;28;20209;-61
2024/02/20 05:13:57;;;;;;;3.47;2.20;;;5.30;99.90;;;;;;4986172;28;20193;-61
2024/02/20 05:16:23;;;;;;;2.10;1.90;;;5.30;99.90;;;;;;4985040;28;20221;-58
2024/02/20 05:18:48;;;;;;;3.03;2.37;;;5.20;99.90;;;;;;4981636;28;20543;-57
2024/02/20 05:21:14;;;;;;;11.80;2.67;;;5.20;99.90;;;;;;4988628;28;20195;-56
2024/02/20 05:23:39;;;;;;;7.00;2.47;;;5.20;99.90;;;;;;4990062;28;20200;-60
2024/02/20 05:26:06;;;;;;;7.50;2.77;;;5.10;99.90;;;;;;4984519;28;20300;-58
2024/02/20 05:28:31;;;;;;;5.27;2.33;;;5.10;99.90;;;;;;4985584;28;20188;-60
2024/02/20 05:30:57;;;;;;;7.87;2.73;;;5.10;99.90;;;;;;4978372;28;20432;-57
2024/02/20 05:33:23;;;;;;;6.50;2.80;;;5.00;99.90;;;;;;4983940;28;20193;-58
2024/02/20 05:35:48;;;;;;;6.03;2.57;;;5.00;99.90;;;;;;4982789;28;20208;-60
2024/02/20 05:38:14;;;;;;;9.13;3.17;;;5.00;99.90;;;;;;4983589;28;20283;-59
2024/02/20 05:40:40;;;;;;;8.30;2.90;;;5.00;99.90;;;;;;4989653;28;20188;-58
2024/02/20 05:43:05;;;;;;;5.67;2.50;;;5.00;99.90;;;;;;4990325;28;20197;-57
2024/02/20 05:45:33;;;;;;;12.43;2.90;;;4.90;99.90;;;;;;4987976;28;20260;-60
2024/02/20 05:47:59;;;;;;;9.97;3.20;;;4.90;99.90;;;;;;4990095;28;20185;-58
2024/02/20 05:50:24;;;;;;;12.33;3.20;;;4.90;99.90;;;;;;4985546;28;20420;-58
2024/02/20 05:52:50;;;;;;;6.60;2.57;;;4.90;99.90;;;;;;4989142;28;20441;-58
2024/02/20 05:55:16;;;;;;;6.90;3.23;;;4.90;99.90;;;;;;4992113;28;20216;-58
2024/02/20 05:57:41;;;;;;;6.80;3.43;;;4.90;99.90;;;;;;4993110;28;20256;-57
2024/02/20 06:00:07;;;;;;;6.70;3.00;;;4.90;99.90;;;;;;4986277;28;20276;-58
2024/02/20 06:02:33;;;;;;;4.90;2.93;;;4.90;99.90;;;;;;4990148;28;20200;-58
2024/02/20 06:04:59;;;;;;;10.00;3.17;;;4.80;99.90;;;;;;4988354;28;20460;-59
2024/02/20 06:07:25;;;;;;;11.40;3.20;;;4.80;99.90;;;;;;4991276;28;20728;-58
2024/02/20 06:09:51;;;;;;;6.20;2.70;;;4.80;99.90;;;;;;4992576;28;20477;-58
2024/02/20 06:12:16;;;;;;;9.90;3.17;;;4.80;99.90;;;;;;4992296;28;20428;-57
2024/02/20 06:14:45;;;;;;;9.80;2.60;;;4.70;99.90;;;;;;4993098;28;20197;-57
2024/02/20 06:17:11;;;;;;;12.63;3.40;;;4.70;99.90;;;;;;4982539;28;20548;-59
2024/02/20 06:19:37;;;;;;;11.40;3.10;;;4.70;99.90;;;;;;4983873;28;20429;-57
2024/02/20 06:22:02;;;;;;;11.60;3.00;;;4.70;99.90;;;;;;4992601;28;20177;-57
2024/02/20 06:24:28;;;;;;;6.80;3.40;;;4.70;99.90;;;;;;4989106;28;20344;-58
2024/02/20 06:26:54;;;;;;;6.17;3.10;;;4.70;99.90;;;;;;4991576;28;20185;-58
2024/02/20 06:29:20;;;;;;;15.93;4.63;;;4.70;99.90;;;;;;4989902;28;20758;-60
2024/02/20 06:31:51;;;;;;;9.73;3.30;;;4.70;99.90;;;;;;4992467;28;20173;-58
2024/02/20 06:34:17;;;;;;;11.03;3.60;;;4.80;99.90;;;;;;4995371;28;20468;-57
2024/02/20 06:36:42;;;;;;;13.80;3.53;;;4.80;99.90;;;;;;4989469;28;20961;-57
2024/02/20 06:39:08;;;;;;;10.30;3.10;;;4.80;99.90;;;;;;4989748;28;20176;-58
2024/02/20 06:41:34;;;;;;;12.83;3.23;;;4.80;99.90;;;;;;4994670;28;20204;-59
2024/02/20 06:44:00;;;;;;;6.90;3.23;;;4.80;99.90;;;;;;4983141;28;20466;-58
2024/02/20 06:46:26;;;;;;;7.40;3.00;;;4.80;99.90;;;;;;4997396;28;20169;-57
2024/02/20 06:48:51;;;;;;;11.23;3.50;;;4.80;99.90;;;;;;4990744;28;20299;-58
2024/02/20 06:51:19;;;;;;;8.47;3.40;;;4.80;99.90;;;;;;4990252;28;20511;-58
2024/02/20 06:53:44;;;;;;;6.37;3.70;;;4.80;99.90;;;;;;4987269;28;20193;-58
2024/02/20 06:56:10;;;;;;;12.67;4.87;;;4.80;99.90;;;;;;4985899;28;20537;-59
2024/02/20 06:58:36;;;;;;;10.33;3.70;;;4.80;99.90;;;;;;4986597;28;20186;-58
2024/02/20 07:01:01;;;;;;;8.00;3.60;;;4.90;99.90;;;;;;4988568;28;20759;-57
2024/02/20 07:03:27;;;;;;;9.07;2.97;;;4.80;99.90;;;;;;4990271;28;20298;-58
2024/02/20 07:05:52;;;;;;;21.70;3.73;;;4.80;99.90;;;;;;4995310;28;20197;-58
2024/02/20 07:08:18;;;;;;;16.50;3.53;;;4.80;99.90;;;;;;4992248;28;20694;-58
2024/02/20 07:10:44;;;;;;;13.10;3.73;;;4.80;99.90;;;;;;4993717;28;20178;-58
2024/02/20 07:13:09;;;;;;;9.20;4.17;;;4.80;99.90;;;;;;4986832;28;20263;-58
2024/02/20 07:15:37;;;;;;;10.77;3.47;;;4.80;99.90;;;;;;4990939;28;20225;-59
2024/02/20 07:18:03;;;;;;;12.47;4.07;;;4.80;99.90;;;;;;4992604;28;20191;-57
2024/02/20 07:20:29;;;;;;;7.73;3.43;;;4.80;99.90;;;;;;4987541;28;20436;-58
2024/02/20 07:22:54;;;;;;;8.20;3.70;;;4.80;99.90;;;;;;4989750;28;20255;-59
2024/02/20 07:25:22;;;;;;;23.10;4.20;;;4.90;99.90;;;;;;4989170;28;20279;-57
2024/02/20 07:27:47;;;;;;;8.23;3.70;;;4.80;99.90;;;;;;4992462;28;20183;-58
2024/02/20 07:30:13;;;;;;;17.27;4.93;;;4.90;99.90;;;;;;4983376;28;20449;-59
2024/02/20 07:32:41;;;;;;;9.13;3.93;;;4.90;99.90;;;;;;4991163;28;20238;-59
2024/02/20 07:35:09;;;;;;;11.70;3.53;;;4.90;99.90;;;;;;4994194;28;20451;-58
2024/02/20 07:37:36;;;;;;;7.90;4.10;;;4.90;99.90;;;;;;4989648;28;20443;-57
2024/02/20 07:40:02;;;;;;;9.60;3.43;;;5.00;99.90;;;;;;4994803;28;20497;-59
2024/02/20 07:42:27;;;;;;;14.10;3.90;;;5.20;99.90;;;;;;4985691;28;20483;-58
2024/02/20 07:44:53;;;;;;;9.80;3.63;;;5.30;99.90;;;;;;4994812;28;20197;-58
2024/02/20 07:47:18;;;;;;;9.23;3.37;;;5.30;99.90;;;;;;4989331;28;20209;-58
2024/02/20 07:49:46;;;;;;;9.47;3.80;;;5.30;99.90;;;;;;4993349;28;20191;-58
2024/02/20 07:52:12;;;;;;;9.17;3.90;;;5.50;99.90;;;;;;4987903;28;20189;-58
2024/02/20 07:54:37;;;;;;;8.60;3.83;;;5.50;99.90;;;;;;4998454;28;20527;-58
2024/02/20 07:57:03;;;;;;;8.57;3.17;;;5.50;99.90;;;;;;4986287;28;20264;-58
2024/02/20 07:59:29;;;;;;;12.40;3.80;;;5.50;99.90;;;;;;4990304;28;20168;-58
2024/02/20 08:01:54;;;;;;;15.20;3.87;;;5.50;99.90;;;;;;4989404;28;20177;-58
2024/02/20 08:04:20;;;;;;;6.63;3.80;;;5.40;99.90;;;;;;4986500;28;20232;-59
2024/02/20 08:06:46;;;;;;;9.57;3.33;;;5.40;99.90;;;;;;4984440;28;20185;-57
2024/02/20 08:09:11;;;;;;;9.37;3.37;;;5.40;99.90;;;;;;4985578;28;20260;-58
2024/02/20 08:11:37;;;;;;;11.50;3.00;;;5.40;99.90;;;;;;4988615;28;20189;-58
2024/02/20 08:14:03;;;;;;;10.53;4.70;;;5.40;99.90;;;;;;4991335;28;20694;-58
2024/02/20 08:16:32;;;;;;;11.80;3.40;;;5.50;99.90;;;;;;4994065;28;20417;-58
2024/02/20 08:18:58;;;;;;;12.83;4.23;;;5.50;99.90;;;;;;4989307;28;20188;-58
2024/02/20 08:21:24;;;;;;;11.43;4.43;;;5.60;99.90;;;;;;4987422;28;20455;-58
2024/02/20 08:23:49;;;;;;;14.87;3.23;;;5.70;99.90;;;;;;4989513;28;20215;-57
2024/02/20 08:26:15;;;;;;;9.00;3.40;;;5.70;99.90;;;;;;4990534;28;20574;-58
2024/02/20 08:28:41;;;;;;;23.47;3.43;;;5.70;99.90;;;;;;4992461;28;20173;-58
2024/02/20 08:31:08;;;;;;;7.50;3.60;;;5.80;99.90;;;;;;4990607;28;20687;-59
2024/02/20 08:33:35;;;;;;;14.10;3.70;;;5.90;99.90;;;;;;4986093;28;20471;-57
2024/02/20 08:36:00;;;;;;;8.47;3.17;;;5.90;99.90;;;;;;4988682;28;20435;-57
2024/02/20 08:38:26;;;;;;;7.97;3.40;;;5.90;99.90;;;;;;4984233;28;21058;-58
2024/02/20 08:40:52;;;;;;;16.17;4.00;;;6.00;99.90;;;;;;5000953;28;20673;-58
2024/02/20 08:43:18;;;;;;;13.70;3.40;;;6.00;99.90;;;;;;4988745;28;20607;-58
2024/02/20 08:45:44;;;;;;;7.40;3.43;;;6.10;99.90;;;;;;4996948;28;20203;-58
2024/02/20 08:48:09;;;;;;;13.83;4.10;;;6.10;99.90;;;;;;4991692;28;20424;-59
2024/02/20 08:50:35;;;;;;;7.63;3.30;;;6.20;99.90;;;;;;4994640;28;20172;-60
2024/02/20 08:53:06;;;;;;;10.07;3.37;;;6.30;99.90;;;;;;4988436;28;20174;-57
2024/02/20 08:55:32;;;;;;;10.97;3.30;;;6.40;99.90;;;;;;4988269;28;20205;-59
2024/02/20 08:57:58;;;;;;;10.80;3.53;;;6.40;99.80;;;;;;4988068;28;20471;-58
2024/02/20 09:00:24;;;;;;;17.03;3.50;;;6.40;98.10;;;;;;4996140;28;20488;-58
2024/02/20 09:02:50;;;;;;;13.13;3.70;;;6.50;99.10;;;;;;4986629;28;20263;-59
2024/02/20 09:05:15;;;;;;;9.80;3.50;;;6.50;99.40;;;;;;4992080;28;20657;-57
2024/02/20 09:07:42;;;;;;;8.20;3.03;;;6.60;98.70;;;;;;4991399;28;20173;-58
2024/02/20 09:10:08;;;;;;;11.73;3.40;;;6.70;98.10;;;;;;4995568;28;20177;-59
2024/02/20 09:12:34;;;;;;;9.80;3.10;;;6.70;97.10;;;;;;4987839;28;20421;-58
2024/02/20 09:15:02;;;;;;;12.50;3.67;;;6.80;94.50;;;;;;4994668;28;20444;-57
2024/02/20 09:17:29;;;;;;;6.93;2.73;;;6.80;94.70;;;;;;4986381;28;20437;-58
2024/02/20 09:19:55;;;;;;;9.13;3.30;;;6.90;94.30;;;;;;4990077;28;20495;-59
2024/02/20 09:22:20;;;;;;;12.97;3.77;;;6.90;93.00;;;;;;4992193;28;20444;-59
2024/02/20 09:24:46;;;;;;;12.70;3.60;;;7.00;91.90;;;;;;4997859;28;20448;-58
2024/02/20 09:27:12;;;;;;;9.63;3.50;;;7.00;93.00;;;;;;4998039;28;20177;-58
2024/02/20 09:29:38;;;;;;;14.87;2.97;;;7.10;91.80;;;;;;4986994;28;20182;-58
2024/02/20 09:32:04;;;;;;;7.00;3.30;;;7.10;91.10;;;;;;4989025;28;20205;-58
2024/02/20 09:34:30;;;;;;;10.60;3.50;;;7.20;90.60;;;;;;4991860;28;20435;-58
2024/02/20 09:36:55;;;;;;;13.73;3.73;;;7.20;89.80;;;;;;4996682;28;20435;-57
2024/02/20 09:39:21;;;;;;;5.57;2.67;;;7.20;88.10;;;;;;4988050;28;20189;-59
2024/02/20 09:41:51;;;;;;;15.57;3.47;;;7.30;82.60;;;;;;4997662;28;20615;-59
2024/02/20 09:44:17;;;;;;;10.00;2.80;;;7.30;81.80;;;;;;4991464;28;20554;-57
2024/02/20 09:46:47;;;;;;;7.77;3.33;;;7.30;79.30;;;;;;4986907;28;20406;-62
2024/02/20 09:49:14;;;;;;;6.50;2.83;;;7.40;75.40;;;;;;4991351;28;20476;-59
2024/02/20 09:51:40;;;;;;;10.10;2.93;;;7.40;75.40;;;;;;4995614;28;20962;-58
2024/02/20 09:54:07;;;;;;;9.10;2.77;;;7.50;75.70;;;;;;4991778;28;20524;-58
2024/02/20 09:56:35;;;;;;;13.97;3.67;;;7.60;75.00;;;;;;4993839;28;20535;-57
2024/02/20 09:59:01;;;;;;;8.80;3.30;;;7.70;73.40;;;;;;4992701;28;21129;-59
2024/02/20 10:01:28;;;;;;;7.30;3.53;;;7.80;73.40;;;;;;4987328;28;20469;-58
2024/02/20 10:03:58;;;;;;;10.60;2.70;;;7.90;71.00;;;;;;4985694;28;20209;-59
2024/02/20 10:06:25;;;;;;;8.60;2.80;;;7.90;69.30;;;;;;4992043;28;20468;-59
2024/02/20 10:08:52;;;;;;;12.13;3.10;;;8.00;69.60;;;;;;4993945;28;20412;-61
2024/02/20 10:11:18;;;;;;;10.13;3.70;;;8.10;69.90;;;;;;4995359;28;20458;-60
2024/02/20 10:13:44;;;;;;;8.40;2.60;;;8.10;68.70;;;;;;4995369;28;20856;-59
2024/02/20 10:16:14;;;;;;;7.83;2.83;;;8.30;68.70;;;;;;4992928;28;20216;-57
2024/02/20 10:18:40;;;;;;;6.47;2.67;;;8.40;68.70;;;;;;4995333;28;20507;-60
2024/02/20 10:21:07;;;;;;;8.37;2.53;;;8.60;67.50;;;;;;4980660;28;20428;-58
2024/02/20 10:23:32;;;;;;;9.03;3.13;;;8.80;67.80;;;;;;4989088;28;20490;-59
2024/02/20 10:25:59;;;;;;;9.93;3.10;;;8.90;66.90;;;;;;4993738;28;20921;-58
2024/02/20 10:28:25;;;;;;;5.40;2.73;;;9.00;65.80;;;;;;4985058;28;20189;-60
2024/02/20 10:30:52;;;;;;;9.37;3.10;;;9.00;63.60;;;;;;4995423;28;20408;-59
2024/02/20 10:33:17;;;;;;;5.40;2.67;;;9.00;64.40;;;;;;4992653;28;20424;-59
2024/02/20 10:35:43;;;;;;;9.97;2.93;;;8.90;64.30;;;;;;4989631;28;20491;-59
2024/02/20 10:38:13;;;;;;;8.53;2.80;;;8.80;64.50;;;;;;4984157;28;20181;-59
2024/02/20 10:40:38;;;;;;;7.63;2.67;;;8.70;63.80;;;;;;4989816;28;20184;-59
2024/02/20 10:43:10;;;;;;;6.67;2.63;;;8.50;63.40;;;;;;4989174;28;20472;-60
2024/02/20 10:45:36;;;;;;;10.10;2.70;;;8.40;63.00;;;;;;4990056;28;20211;-59
2024/02/20 10:48:03;;;;;;;6.33;2.23;;;8.20;63.00;;;;;;4989513;28;20428;-59
2024/02/20 10:50:31;;;;;;;8.77;3.30;;;8.00;62.90;;;;;;4994872;28;20973;-60
2024/02/20 10:53:00;;;;;;;11.80;3.20;;;7.90;64.20;;;;;;4989692;28;20982;-60
2024/02/20 10:55:26;;;;;;;9.93;3.07;;;7.80;64.40;;;;;;4986426;28;20541;-60
2024/02/20 10:57:53;;;;;;;13.47;3.13;;;7.80;65.30;;;;;;4991458;28;20424;-59
2024/02/20 11:00:19;;;;;;;9.93;3.87;;;7.80;65.60;;;;;;4991091;28;20426;-59
2024/02/20 11:02:49;;;;;;;13.93;3.40;;;7.80;65.90;;;;;;4985306;28;20550;-59
2024/02/20 11:05:16;;;;;;;11.30;2.90;;;7.80;65.70;;;;;;4987836;28;21604;-59
2024/02/20 11:07:43;;;;;;;9.83;3.00;;;7.80;65.90;;;;;;4984278;28;20448;-59
2024/02/20 11:10:16;;;;;;;14.40;2.60;;;7.80;64.90;;;;;;4986757;28;20417;-59
2024/02/20 11:12:42;;;;;;;7.93;2.70;;;7.90;65.80;;;;;;4988730;28;20457;-59
2024/02/20 11:15:27;;;;;;;10.93;2.93;;;7.90;66.10;;;;;;4990291;28;20968;-59
2024/02/20 11:17:55;;;;;;;17.50;3.07;;;8.00;65.30;;;;;;4984712;28;20185;-59
2024/02/20 11:20:23;;;;;;;7.00;2.90;;;8.00;64.50;;;;;;4986578;28;20523;-59
2024/02/20 11:22:50;;;;;;;13.83;3.10;;;7.90;63.80;;;;;;4991540;28;20579;-58
2024/02/20 11:25:28;;;;;;;6.40;3.17;;;7.90;64.30;;;;;;4982068;28;21032;-61
2024/02/20 11:27:54;;;;;;;9.37;3.63;;;7.90;64.60;;;;;;4985783;28;20820;-61
2024/02/20 11:30:20;;;;;;;4.73;2.30;;;7.90;64.70;;;;;;4986589;28;20891;-60
2024/02/20 11:32:47;;;;;;;10.43;2.67;;;7.90;65.20;;;;;;4986125;28;20471;-59
2024/02/20 11:35:24;;;;;;;11.43;3.50;;;7.90;64.50;;;;;;4988054;28;20216;-59
2024/02/20 11:37:51;;;;;;;12.63;2.73;;;7.90;64.70;;;;;;4984695;28;20490;-59
2024/02/20 11:40:31;;;;;;;12.40;2.70;;;8.00;64.70;;;;;;4985105;28;20536;-58
2024/02/20 11:43:04;;;;;;;9.10;3.27;;;7.90;64.10;;;;;;4983699;28;20851;-58
2024/02/20 11:45:31;;;;;;;6.60;3.07;;;7.90;64.20;;;;;;4988657;28;20432;-59
2024/02/20 11:48:07;;;;;;;11.80;3.90;;;8.00;64.50;;;;;;4985476;28;20432;-59
2024/02/20 11:50:37;;;;;;;6.60;2.53;;;8.00;64.50;;;;;;4986266;28;20423;-59
2024/02/20 11:53:03;;;;;;;4.47;2.53;;;8.20;64.40;;;;;;4988462;28;20420;-60
2024/02/20 11:55:32;;;;;;;9.80;2.97;;;8.40;64.50;;;;;;4988665;28;20444;-59
2024/02/20 11:58:02;;;;;;;8.53;3.10;;;8.60;63.70;;;;;;4984135;28;21096;-59
2024/02/20 12:00:30;;;;;;;13.67;3.20;;;8.70;63.50;;;;;;4987149;28;20421;-60
2024/02/20 12:02:56;;;;;;;12.47;2.93;;;8.70;63.70;;;;;;4990059;28;20494;-60
2024/02/20 12:05:26;;;;;;;23.17;4.13;;;8.70;63.10;;;;;;4988531;28;20490;-59
2024/02/20 12:07:52;;;;;;;5.77;2.43;;;8.70;64.00;;;;;;4985253;28;20181;-59
2024/02/20 12:10:19;;;;;;;5.90;2.70;;;8.60;63.30;;;;;;4987831;28;20874;-60
2024/02/20 12:12:45;;;;;;;10.67;3.93;;;8.50;63.60;;;;;;4984902;28;20511;-60
2024/02/20 12:15:11;;;;;;;9.03;2.83;;;8.50;64.70;;;;;;4982987;28;20559;-60
2024/02/20 12:17:46;;;;;;;6.07;3.00;;;8.50;65.80;;;;;;4995067;28;20228;-61
2024/02/20 12:20:13;;;;;;;11.47;3.37;;;8.50;66.80;;;;;;4983237;28;20439;-60
2024/02/20 12:22:42;;;;;;;11.07;2.40;;;8.50;67.30;;;;;;4997667;28;20521;-59
2024/02/20 12:25:19;;;;;;;8.97;2.60;;;8.70;67.30;;;;;;4993169;28;20458;-60
2024/02/20 12:27:47;;;;;;;4.53;2.30;;;9.10;67.40;;;;;;4990952;28;20458;-60
2024/02/20 12:30:13;;;;;;;5.63;2.50;;;9.40;65.90;;;;;;4991003;28;20440;-60
2024/02/20 12:32:38;;;;;;;9.00;4.00;;;9.70;65.00;;;;;;4993241;28;20443;-59
2024/02/20 12:35:04;;;;;;;15.63;3.60;;;10.00;60.60;;;;;;4990073;28;20459;-59
2024/02/20 12:37:30;;;;;;;7.83;3.60;;;10.00;58.50;;;;;;4986585;28;20181;-59
2024/02/20 12:39:55;;;;;;;8.33;4.53;;;9.90;59.10;;;;;;4992986;28;20539;-59
2024/02/20 12:42:21;;;;;;;7.50;2.23;;;9.60;59.80;;;;;;4993278;28;20181;-59
2024/02/20 12:44:47;;;;;;;3.60;1.77;;;9.40;60.60;;;;;;4992377;28;20362;-57
2024/02/20 12:47:13;;;;;;;8.33;2.40;;;9.10;59.80;;;;;;4992565;28;20178;-58
2024/02/20 12:49:40;;;;;;;4.40;1.83;;;8.90;60.10;;;;;;4992253;28;20440;-57
2024/02/20 12:52:06;;;;;;;8.73;2.33;;;8.70;60.10;;;;;;4995014;28;20413;-57